Time;durP1;ratioP1;P1;durP2;ratioP2;P2;SDS_P1;SDS_P2;PMS_P1;PMS_P2;Temp;Humidity;BMP_temperature;BMP_pressure;BME280_temperature;BME280_humidity;BME280_pressure;Samples;Min_cycle;Max_cycle;Signal;HPM_P1;HPM_P2
2023/10/25 00:03:47;;;;;;;;;;;;;;;;;;10419690;28;20687;-75
2023/10/25 00:08:47;;;;;;;;;;;;;;;;;;10424613;28;20412;-75
2023/10/25 00:13:47;;;;;;;;;;;;;;;;;;10417530;28;19990;-75
2023/10/25 00:18:48;;;;;;;;;;;;;;;;;;10417820;28;19959;-75
2023/10/25 00:23:48;;;;;;;;;;;;;;;;;;10403290;28;20013;-76
2023/10/25 00:28:48;;;;;;;;;;;;;;;;;;10399647;28;19929;-75
2023/10/25 00:33:48;;;;;;;;;;;;;;;;;;10404873;28;19921;-73
2023/10/25 00:38:49;;;;;;;;;;;;;;;;;;10426240;28;19921;-73
2023/10/25 00:43:49;;;;;;;;;;;;;;;;;;10401990;28;19924;-76
2023/10/25 00:48:49;;;;;;;;;;;;;;;;;;10400117;28;19936;-75
2023/10/25 00:53:50;;;;;;;;;;;;;;;;;;10401149;28;20532;-76
2023/10/25 00:58:51;;;;;;;;;;;;;;;;;;10432101;28;19921;-77
2023/10/25 01:03:52;;;;;;;;;;;;;;;;;;10386547;28;19927;-76
2023/10/25 01:08:53;;;;;;;;;;;;;;;;;;10418761;28;19936;-76
2023/10/25 01:13:53;;;;;;;;;;;;;;;;;;10403525;28;19925;-77
2023/10/25 01:18:53;;;;;;;;;;;;;;;;;;10396395;28;19968;-77
2023/10/25 01:23:53;;;;;;;;;;;;;;;;;;10396627;28;19925;-74
2023/10/25 01:28:53;;;;;;;;;;;;;;;;;;10409727;28;19980;-74
2023/10/25 01:33:54;;;;;;;;;;;;;;;;;;10357241;28;19927;-73
2023/10/25 01:38:54;;;;;;;;;;;;;;;;;;10393893;28;20388;-75
2023/10/25 01:43:54;;;;;;;;;;;;;;;;;;10383224;28;20019;-77
2023/10/25 01:48:55;;;;;;;;;;;;;;;;;;10391589;28;19935;-74
2023/10/25 01:53:55;;;;;;;;;;;;;;;;;;10394202;28;19924;-74
2023/10/25 01:58:55;;;;;;;;;;;;;;;;;;10416948;28;20431;-74
2023/10/25 02:03:55;;;;;;;;;;;;;;;;;;10412958;28;19921;-76
2023/10/25 02:08:56;;;;;;;;;;;;;;;;;;10408426;28;20615;-75
2023/10/25 02:13:56;;;;;;;;;;;;;;;;;;10383960;28;20772;-77
2023/10/25 02:18:56;;;;;;;;;;;;;;;;;;10411226;28;19928;-75
2023/10/25 02:23:56;;;;;;;;;;;;;;;;;;10424903;28;19921;-75
2023/10/25 02:28:56;;;;;;;;;;;;;;;;;;10420254;28;20038;-74
2023/10/25 02:33:57;;;;;;;;;;;;;;;;;;10425937;28;20365;-74
2023/10/25 02:38:57;;;;;;;;;;;;;;;;;;10403364;28;19917;-74
2023/10/25 02:43:58;;;;;;;;;;;;;;;;;;10432275;28;20610;-75
2023/10/25 02:48:58;;;;;;;;;;;;;;;;;;10420864;28;19929;-74
2023/10/25 02:53:59;;;;;;;;;;;;;;;;;;10415007;28;20615;-74
2023/10/25 02:58:59;;;;;;;;;;;;;;;;;;10417186;28;20030;-75
2023/10/25 03:03:59;;;;;;;;;;;;;;;;;;10386296;28;19928;-76
2023/10/25 03:08:59;;;;;;;;;;;;;;;;;;10399541;28;19928;-73
2023/10/25 03:14:00;;;;;;;;;;;;;;;;;;10431052;28;20079;-73
2023/10/25 03:19:00;;;;;;;;;;;;;;;;;;10436193;28;19932;-74
2023/10/25 03:24:00;;;;;;;;;;;;;;;;;;10410611;28;19921;-75
2023/10/25 03:29:01;;;;;;;;;;;;;;;;;;10409192;28;19929;-74
2023/10/25 03:34:01;;;;;;;;;;;;;;;;;;10412758;28;19927;-75
2023/10/25 03:39:01;;;;;;;;;;;;;;;;;;10426619;28;19932;-75
2023/10/25 03:44:01;;;;;;;;;;;;;;;;;;10428610;28;20397;-75
2023/10/25 03:49:02;;;;;;;;;;;;;;;;;;10413768;28;20296;-74
2023/10/25 03:54:02;;;;;;;;;;;;;;;;;;10412104;28;19943;-74
2023/10/25 03:59:02;;;;;;;;;;;;;;;;;;10415173;28;19932;-76
2023/10/25 04:04:02;;;;;;;;;;;;;;;;;;10431610;28;19986;-76
2023/10/25 04:09:03;;;;;;;;;;;;;;;;;;10409163;28;19939;-75
2023/10/25 04:14:03;;;;;;;;;;;;;;;;;;10388119;28;19925;-77
2023/10/25 04:19:04;;;;;;;;;;;;;;;;;;10364888;28;19925;-75
2023/10/25 04:24:04;;;;;;;;;;;;;;;;;;10376487;28;19976;-75
2023/10/25 04:29:04;;;;;;;;;;;;;;;;;;10370536;28;19926;-75
2023/10/25 04:34:04;;;;;;;;;;;;;;;;;;10369668;28;19928;-78
2023/10/25 04:39:04;;;;;;;;;;;;;;;;;;10373253;28;19972;-75
2023/10/25 04:44:05;;;;;;;;;;;;;;;;;;10378818;28;19921;-75
2023/10/25 04:49:05;;;;;;;;;;;;;;;;;;10388278;28;20707;-76
2023/10/25 04:54:05;;;;;;;;;;;;;;;;;;10386530;28;19921;-75
2023/10/25 04:59:05;;;;;;;;;;;;;;;;;;10391487;28;19921;-74
2023/10/25 05:04:06;;;;;;;;;;;;;;;;;;10391451;28;20010;-75
2023/10/25 05:09:06;;;;;;;;;;;;;;;;;;10393863;28;20023;-77
2023/10/25 05:14:06;;;;;;;;;;;;;;;;;;10389983;28;20404;-76
2023/10/25 05:19:06;;;;;;;;;;;;;;;;;;10385207;28;20031;-74
2023/10/25 05:24:07;;;;;;;;;;;;;;;;;;10389326;28;19932;-74
2023/10/25 05:29:07;;;;;;;;;;;;;;;;;;10392426;28;19939;-75
2023/10/25 05:34:07;;;;;;;;;;;;;;;;;;10391430;28;20758;-74
2023/10/25 05:39:07;;;;;;;;;;;;;;;;;;10385700;28;19932;-74
2023/10/25 05:44:07;;;;;;;;;;;;;;;;;;10387503;28;20381;-74
2023/10/25 05:49:08;;;;;;;;;;;;;;;;;;10394648;28;19933;-74
2023/10/25 05:54:08;;;;;;;;;;;;;;;;;;10399768;28;20686;-74
2023/10/25 05:59:08;;;;;;;;;;;;;;;;;;10398205;28;19925;-74
2023/10/25 06:04:08;;;;;;;;;;;;;;;;;;10396489;28;20016;-75
2023/10/25 06:09:10;;;;;;;;;;;;;;;;;;10390073;28;19936;-73
2023/10/25 06:14:10;;;;;;;;;;;;;;;;;;10385168;28;19929;-74
2023/10/25 06:19:10;;;;;;;;;;;;;;;;;;10387891;28;19953;-76
2023/10/25 06:24:10;;;;;;;;;;;;;;;;;;10385818;28;20075;-73
2023/10/25 06:29:11;;;;;;;;;;;;;;;;;;10384201;28;19933;-73
2023/10/25 06:34:11;;;;;;;;;;;;;;;;;;10386264;28;19925;-73
2023/10/25 06:39:11;;;;;;;;;;;;;;;;;;10393904;28;20034;-75
2023/10/25 06:44:11;;;;;;;;;;;;;;;;;;10394994;28;20386;-74
2023/10/25 06:49:12;;;;;;;;;;;;;;;;;;10393172;28;19963;-74
2023/10/25 06:54:12;;;;;;;;;;;;;;;;;;10397116;28;19940;-74
2023/10/25 06:59:12;;;;;;;;;;;;;;;;;;10391977;28;19925;-78
2023/10/25 07:04:13;;;;;;;;;;;;;;;;;;10389216;28;19967;-76
2023/10/25 07:09:16;;;;;;;;;;;;;;;;;;10390305;28;19976;-73
2023/10/25 07:14:16;;;;;;;;;;;;;;;;;;10386521;28;19932;-76
2023/10/25 07:19:16;;;;;;;;;;;;;;;;;;10385029;28;19921;-74
2023/10/25 07:24:17;;;;;;;;;;;;;;;;;;10385368;28;20344;-73
2023/10/25 07:29:19;;;;;;;;;;;;;;;;;;10384572;28;19929;-74
2023/10/25 07:34:20;;;;;;;;;;;;;;;;;;10386449;28;19928;-76
2023/10/25 07:39:20;;;;;;;;;;;;;;;;;;10386633;28;20005;-74
2023/10/25 07:44:20;;;;;;;;;;;;;;;;;;10393056;28;19924;-75
2023/10/25 07:49:21;;;;;;;;;;;;;;;;;;10398281;28;19935;-74
2023/10/25 07:54:21;;;;;;;;;;;;;;;;;;10395282;28;20015;-74
2023/10/25 07:59:21;;;;;;;;;;;;;;;;;;10396030;28;20765;-78
2023/10/25 08:04:22;;;;;;;;;;;;;;;;;;10390534;28;19929;-75
2023/10/25 08:09:22;;;;;;;;;;;;;;;;;;10393255;28;19929;-73
2023/10/25 08:14:22;;;;;;;;;;;;;;;;;;10394761;28;19931;-75
2023/10/25 08:19:22;;;;;;;;;;;;;;;;;;10394020;28;20092;-76
2023/10/25 08:24:23;;;;;;;;;;;;;;;;;;10390055;28;20010;-76
2023/10/25 08:29:23;;;;;;;;;;;;;;;;;;10389495;28;19945;-78
2023/10/25 08:34:24;;;;;;;;;;;;;;;;;;10386490;28;20320;-76
2023/10/25 08:39:24;;;;;;;;;;;;;;;;;;10386139;28;19925;-75
2023/10/25 08:44:25;;;;;;;;;;;;;;;;;;10390429;28;19921;-74
2023/10/25 08:49:25;;;;;;;;;;;;;;;;;;10390737;28;19938;-74
2023/10/25 08:54:25;;;;;;;;;;;;;;;;;;10388575;28;19924;-77
2023/10/25 08:59:25;;;;;;;;;;;;;;;;;;10385320;28;19927;-75
2023/10/25 09:04:26;;;;;;;;;;;;;;;;;;10387166;28;20293;-75
2023/10/25 09:09:26;;;;;;;;;;;;;;;;;;10380610;28;19929;-75
2023/10/25 09:14:26;;;;;;;;;;;;;;;;;;10397020;28;19925;-75
2023/10/25 09:19:26;;;;;;;;;;;;;;;;;;10400168;28;20300;-74
2023/10/25 09:24:27;;;;;;;;;;;;;;;;;;10404199;28;19947;-74
2023/10/25 09:29:29;;;;;;;;;;;;;;;;;;10416622;28;19929;-74
2023/10/25 09:34:29;;;;;;;;;;;;;;;;;;10417606;28;19927;-74
2023/10/25 09:39:30;;;;;;;;;;;;;;;;;;10426183;28;19925;-74
2023/10/25 09:44:31;;;;;;;;;;;;;;;;;;10416816;28;19952;-74
2023/10/25 09:49:31;;;;;;;;;;;;;;;;;;10405800;28;19944;-75
2023/10/25 09:54:32;;;;;;;;;;;;;;;;;;10432157;28;19935;-74
2023/10/25 09:59:32;;;;;;;;;;;;;;;;;;10420959;28;20002;-75
2023/10/25 10:04:33;;;;;;;;;;;;;;;;;;10406786;28;19971;-75
2023/10/25 10:09:33;;;;;;;;;;;;;;;;;;10424872;28;20066;-76
2023/10/25 10:14:35;;;;;;;;;;;;;;;;;;10396289;28;19928;-75
2023/10/25 10:19:35;;;;;;;;;;;;;;;;;;10429753;28;19920;-75
2023/10/25 10:24:35;;;;;;;;;;;;;;;;;;10425654;28;19920;-75
2023/10/25 10:29:35;;;;;;;;;;;;;;;;;;10424199;28;20494;-73
2023/10/25 10:34:36;;;;;;;;;;;;;;;;;;10433280;28;20913;-76
2023/10/25 10:39:36;;;;;;;;;;;;;;;;;;10421278;28;19929;-75
2023/10/25 10:44:36;;;;;;;;;;;;;;;;;;10437605;28;20243;-74
2023/10/25 10:49:36;;;;;;;;;;;;;;;;;;10430506;28;19929;-76
2023/10/25 10:54:37;;;;;;;;;;;;;;;;;;10416283;28;20403;-75
2023/10/25 10:59:37;;;;;;;;;;;;;;;;;;10425596;28;19921;-75
2023/10/25 11:04:37;;;;;;;;;;;;;;;;;;10424009;28;20384;-77
2023/10/25 11:09:38;;;;;;;;;;;;;;;;;;10430980;28;20353;-75
2023/10/25 11:14:38;;;;;;;;;;;;;;;;;;10430593;28;20292;-75
2023/10/25 11:19:38;;;;;;;;;;;;;;;;;;10400569;28;19921;-74
2023/10/25 11:24:38;;;;;;;;;;;;;;;;;;10424591;28;19925;-76
2023/10/25 11:29:39;;;;;;;;;;;;;;;;;;10412830;28;19935;-77
2023/10/25 11:34:39;;;;;;;;;;;;;;;;;;10416537;28;19931;-76
2023/10/25 11:39:39;;;;;;;;;;;;;;;;;;10412635;28;20696;-74
2023/10/25 11:44:39;;;;;;;;;;;;;;;;;;10417827;28;19928;-73
2023/10/25 11:49:40;;;;;;;;;;;;;;;;;;10394683;28;20161;-74
2023/10/25 11:54:40;;;;;;;;;;;;;;;;;;10417606;28;19920;-74
2023/10/25 11:59:40;;;;;;;;;;;;;;;;;;10431162;28;19920;-74
2023/10/25 12:04:40;;;;;;;;;;;;;;;;;;10416727;28;20297;-74
2023/10/25 12:09:42;;;;;;;;;;;;;;;;;;10430964;28;20426;-73
2023/10/25 12:14:42;;;;;;;;;;;;;;;;;;10410805;28;19925;-75
2023/10/25 12:19:43;;;;;;;;;;;;;;;;;;10428805;28;19925;-74
2023/10/25 12:24:43;;;;;;;;;;;;;;;;;;10412430;28;19927;-75
2023/10/25 12:29:44;;;;;;;;;;;;;;;;;;10397721;28;19924;-72
2023/10/25 12:34:44;;;;;;;;;;;;;;;;;;10393967;28;20042;-76
2023/10/25 12:39:45;;;;;;;;;;;;;;;;;;10395633;28;20714;-75
2023/10/25 12:44:45;;;;;;;;;;;;;;;;;;10431287;28;19999;-74
2023/10/25 12:49:45;;;;;;;;;;;;;;;;;;10405936;28;19932;-74
2023/10/25 12:54:45;;;;;;;;;;;;;;;;;;10419266;28;19920;-75
2023/10/25 12:59:46;;;;;;;;;;;;;;;;;;10428650;28;19921;-74
2023/10/25 13:04:46;;;;;;;;;;;;;;;;;;10430010;28;19920;-75
2023/10/25 13:09:46;;;;;;;;;;;;;;;;;;10431139;28;20799;-75
2023/10/25 13:14:47;;;;;;;;;;;;;;;;;;10428408;28;19936;-74
2023/10/25 13:19:47;;;;;;;;;;;;;;;;;;10429300;28;19952;-74
2023/10/25 13:24:47;;;;;;;;;;;;;;;;;;10430213;28;19925;-74
2023/10/25 13:29:48;;;;;;;;;;;;;;;;;;10429899;28;19920;-78
2023/10/25 13:34:48;;;;;;;;;;;;;;;;;;10427592;28;19929;-77
2023/10/25 13:39:48;;;;;;;;;;;;;;;;;;10431612;28;19931;-75
2023/10/25 13:44:49;;;;;;;;;;;;;;;;;;10424734;28;20329;-75
2023/10/25 13:49:49;;;;;;;;;;;;;;;;;;10427771;28;19936;-77
2023/10/25 13:54:49;;;;;;;;;;;;;;;;;;10419557;28;20804;-84
2023/10/25 13:59:50;;;;;;;;;;;;;;;;;;10413754;28;19921;-75
2023/10/25 14:04:51;;;;;;;;;;;;;;;;;;10419698;28;19921;-77
2023/10/25 14:09:51;;;;;;;;;;;;;;;;;;10422721;28;19929;-74
2023/10/25 14:14:51;;;;;;;;;;;;;;;;;;10412649;28;20487;-76
2023/10/25 14:19:51;;;;;;;;;;;;;;;;;;10426825;28;20423;-74
2023/10/25 14:24:52;;;;;;;;;;;;;;;;;;10420090;28;19968;-74
2023/10/25 14:29:52;;;;;;;;;;;;;;;;;;10403142;28;19928;-75
2023/10/25 14:34:53;;;;;;;;;;;;;;;;;;10422061;28;19921;-78
2023/10/25 14:39:53;;;;;;;;;;;;;;;;;;10417163;28;19925;-77
2023/10/25 14:44:53;;;;;;;;;;;;;;;;;;10416325;28;19921;-75
2023/10/25 14:49:53;;;;;;;;;;;;;;;;;;10420549;28;19921;-74
2023/10/25 14:54:54;;;;;;;;;;;;;;;;;;10408811;28;20396;-76
2023/10/25 14:59:56;;;;;;;;;;;;;;;;;;10418146;28;19928;-74
2023/10/25 15:04:56;;;;;;;;;;;;;;;;;;10421824;28;19968;-73
2023/10/25 15:09:56;;;;;;;;;;;;;;;;;;10420422;28;20436;-75
2023/10/25 15:14:58;;;;;;;;;;;;;;;;;;10425447;28;19928;-76
2023/10/25 15:19:58;;;;;;;;;;;;;;;;;;10415143;28;20495;-76
2023/10/25 15:24:59;;;;;;;;;;;;;;;;;;10439687;28;19927;-74
2023/10/25 15:30:00;;;;;;;;;;;;;;;;;;10433445;28;19951;-73
2023/10/25 15:35:00;;;;;;;;;;;;;;;;;;10435308;28;19920;-76
2023/10/25 15:40:00;;;;;;;;;;;;;;;;;;10429690;28;19920;-76
2023/10/25 15:45:01;;;;;;;;;;;;;;;;;;10426852;28;19927;-75
2023/10/25 15:50:01;;;;;;;;;;;;;;;;;;10428392;28;19924;-75
2023/10/25 15:55:01;;;;;;;;;;;;;;;;;;10429792;28;19966;-76
2023/10/25 16:00:01;;;;;;;;;;;;;;;;;;10433269;28;19920;-75
2023/10/25 16:05:06;;;;;;;;;;;;;;;;;;10411482;28;19959;-75
2023/10/25 16:10:06;;;;;;;;;;;;;;;;;;10409688;28;19969;-74
2023/10/25 16:15:06;;;;;;;;;;;;;;;;;;10376548;28;20671;-75
2023/10/25 16:20:06;;;;;;;;;;;;;;;;;;10394610;28;20483;-76
2023/10/25 16:25:10;;;;;;;;;;;;;;;;;;10393498;28;19991;-73
2023/10/25 16:30:11;;;;;;;;;;;;;;;;;;10388736;28;19959;-76
2023/10/25 16:35:11;;;;;;;;;;;;;;;;;;10387434;28;20019;-75
2023/10/25 16:40:14;;;;;;;;;;;;;;;;;;10388692;28;19925;-77
2023/10/25 16:45:14;;;;;;;;;;;;;;;;;;10390475;28;19929;-77
2023/10/25 16:50:15;;;;;;;;;;;;;;;;;;10390289;28;20660;-76
2023/10/25 16:55:15;;;;;;;;;;;;;;;;;;10398022;28;20370;-74
2023/10/25 17:00:16;;;;;;;;;;;;;;;;;;10370086;28;20380;-77
2023/10/25 17:05:16;;;;;;;;;;;;;;;;;;10387120;28;19929;-77
2023/10/25 17:10:16;;;;;;;;;;;;;;;;;;10378687;28;20289;-76
2023/10/25 17:15:18;;;;;;;;;;;;;;;;;;10380896;28;20365;-74
2023/10/25 17:20:18;;;;;;;;;;;;;;;;;;10380977;28;19921;-75
2023/10/25 17:25:18;;;;;;;;;;;;;;;;;;10383346;28;19929;-74
2023/10/25 17:30:20;;;;;;;;;;;;;;;;;;10379815;28;20002;-77
2023/10/25 17:35:20;;;;;;;;;;;;;;;;;;10384796;28;19921;-75
2023/10/25 17:40:20;;;;;;;;;;;;;;;;;;10387560;28;19928;-75
2023/10/25 17:45:23;;;;;;;;;;;;;;;;;;10394665;28;19925;-73
2023/10/25 17:50:23;;;;;;;;;;;;;;;;;;10396726;28;20007;-75
2023/10/25 17:55:23;;;;;;;;;;;;;;;;;;10396108;28;19926;-74
2023/10/25 18:00:24;;;;;;;;;;;;;;;;;;10394235;28;19917;-76
2023/10/25 18:05:24;;;;;;;;;;;;;;;;;;10391784;28;19976;-76
2023/10/25 18:10:25;;;;;;;;;;;;;;;;;;10394787;28;19925;-75
2023/10/25 18:15:26;;;;;;;;;;;;;;;;;;10376956;28;20382;-76
2023/10/25 18:20:35;;;;;;;;;;;;;;;;;;10347846;28;19949;-75
2023/10/25 18:25:38;;;;;;;;;;;;;;;;;;10334382;28;20472;-76
2023/10/25 18:30:40;;;;;;;;;;;;;;;;;;10350268;28;19926;-74
2023/10/25 18:35:40;;;;;;;;;;;;;;;;;;10342696;28;19940;-76
2023/10/25 18:40:40;;;;;;;;;;;;;;;;;;10354089;28;19918;-75
2023/10/25 18:45:41;;;;;;;;;;;;;;;;;;10353425;28;19925;-74
2023/10/25 18:50:41;;;;;;;;;;;;;;;;;;10386907;28;19925;-73
2023/10/25 18:55:42;;;;;;;;;;;;;;;;;;10392312;28;19921;-75
2023/10/25 19:00:44;;;;;;;;;;;;;;;;;;10390846;28;19983;-75
2023/10/25 19:05:44;;;;;;;;;;;;;;;;;;10387742;28;19995;-74
2023/10/25 19:10:44;;;;;;;;;;;;;;;;;;10382923;28;20596;-74
2023/10/25 19:15:45;;;;;;;;;;;;;;;;;;10416098;28;20310;-77
2023/10/25 19:20:46;;;;;;;;;;;;;;;;;;10416764;28;19947;-75
2023/10/25 19:25:46;;;;;;;;;;;;;;;;;;10406540;28;19932;-75
2023/10/25 19:30:48;;;;;;;;;;;;;;;;;;10401405;28;20000;-76
2023/10/25 19:35:48;;;;;;;;;;;;;;;;;;10414152;28;21171;-76
2023/10/25 19:40:48;;;;;;;;;;;;;;;;;;10428390;28;19947;-77
2023/10/25 19:45:48;;;;;;;;;;;;;;;;;;10428991;28;20523;-75
2023/10/25 19:50:48;;;;;;;;;;;;;;;;;;10429249;28;20055;-74
2023/10/25 19:55:49;;;;;;;;;;;;;;;;;;10430121;28;19931;-75
2023/10/25 20:00:49;;;;;;;;;;;;;;;;;;10422240;28;19935;-74
2023/10/25 20:05:49;;;;;;;;;;;;;;;;;;10422923;28;19931;-75
2023/10/25 20:10:49;;;;;;;;;;;;;;;;;;10425689;28;19979;-76
2023/10/25 20:15:50;;;;;;;;;;;;;;;;;;10425709;28;19975;-77
2023/10/25 20:20:52;;;;;;;;;;;;;;;;;;10415992;28;20298;-77
2023/10/25 20:25:52;;;;;;;;;;;;;;;;;;10428880;28;19936;-76
2023/10/25 20:30:52;;;;;;;;;;;;;;;;;;10430581;28;19921;-75
2023/10/25 20:35:52;;;;;;;;;;;;;;;;;;10420415;28;19920;-73
2023/10/25 20:40:53;;;;;;;;;;;;;;;;;;10424747;28;19928;-75
2023/10/25 20:45:53;;;;;;;;;;;;;;;;;;10413588;28;20675;-74
2023/10/25 20:50:53;;;;;;;;;;;;;;;;;;10428137;28;20019;-74
2023/10/25 20:55:54;;;;;;;;;;;;;;;;;;10420529;28;19974;-75
2023/10/25 21:00:54;;;;;;;;;;;;;;;;;;10426616;28;19931;-73
2023/10/25 21:05:54;;;;;;;;;;;;;;;;;;10428959;28;19924;-72
2023/10/25 21:10:55;;;;;;;;;;;;;;;;;;10395914;28;19932;-73
2023/10/25 21:15:55;;;;;;;;;;;;;;;;;;10430711;28;19931;-76
2023/10/25 21:20:55;;;;;;;;;;;;;;;;;;10436997;28;19921;-75
2023/10/25 21:25:55;;;;;;;;;;;;;;;;;;10415656;28;19925;-75
2023/10/25 21:30:56;;;;;;;;;;;;;;;;;;10425093;28;19951;-76
2023/10/25 21:35:56;;;;;;;;;;;;;;;;;;10426189;28;19930;-75
2023/10/25 21:40:56;;;;;;;;;;;;;;;;;;10431584;28;20404;-76
2023/10/25 21:45:57;;;;;;;;;;;;;;;;;;10427071;28;20023;-78
2023/10/25 21:50:57;;;;;;;;;;;;;;;;;;10421049;28;19933;-77
2023/10/25 21:55:57;;;;;;;;;;;;;;;;;;10430729;28;19979;-73
2023/10/25 22:00:58;;;;;;;;;;;;;;;;;;10422990;28;20518;-78
2023/10/25 22:05:58;;;;;;;;;;;;;;;;;;10401476;28;19921;-73
2023/10/25 22:10:58;;;;;;;;;;;;;;;;;;10388346;28;19959;-74
2023/10/25 22:15:58;;;;;;;;;;;;;;;;;;10411033;28;19920;-76
2023/10/25 22:20:59;;;;;;;;;;;;;;;;;;10412185;28;19920;-76
2023/10/25 22:25:59;;;;;;;;;;;;;;;;;;10416722;28;20036;-73
2023/10/25 22:30:59;;;;;;;;;;;;;;;;;;10429669;28;20469;-74
2023/10/25 22:36:00;;;;;;;;;;;;;;;;;;10412365;28;19920;-74
2023/10/25 22:41:00;;;;;;;;;;;;;;;;;;10423400;28;20032;-74
2023/10/25 22:46:01;;;;;;;;;;;;;;;;;;10425422;28;20562;-77
2023/10/25 22:51:01;;;;;;;;;;;;;;;;;;10442336;28;20019;-75
2023/10/25 22:56:02;;;;;;;;;;;;;;;;;;10438211;28;20012;-74
2023/10/25 23:01:02;;;;;;;;;;;;;;;;;;10443987;28;19971;-73
2023/10/25 23:06:02;;;;;;;;;;;;;;;;;;10428470;28;19925;-72
2023/10/25 23:11:02;;;;;;;;;;;;;;;;;;10427722;28;19928;-72
2023/10/25 23:16:03;;;;;;;;;;;;;;;;;;10426954;28;19925;-74
2023/10/25 23:21:03;;;;;;;;;;;;;;;;;;10435882;28;19921;-73
2023/10/25 23:26:04;;;;;;;;;;;;;;;;;;10406913;28;20008;-73
2023/10/25 23:31:05;;;;;;;;;;;;;;;;;;10432916;28;19925;-75
2023/10/25 23:36:05;;;;;;;;;;;;;;;;;;10418622;28;19921;-74
2023/10/25 23:41:05;;;;;;;;;;;;;;;;;;10412700;28;20335;-73
2023/10/25 23:46:06;;;;;;;;;;;;;;;;;;10427013;28;19924;-73
2023/10/25 23:51:06;;;;;;;;;;;;;;;;;;10428241;28;19921;-75
2023/10/25 23:56:07;;;;;;;;;;;;;;;;;;10432183;28;19925;-78
